Time;durP1;ratioP1;P1;durP2;ratioP2;P2;SDS_P1;SDS_P2;PMS_P1;PMS_P2;Temp;Humidity;BMP_temperature;BMP_pressure;BME280_temperature;BME280_humidity;BME280_pressure;Samples;Min_cycle;Max_cycle;Signal;HPM_P1;HPM_P2
2022/08/18 00:00:05;;;;;;;14.30;12.77;;;;;;;;;;2068765;28;20034;-63
2022/08/18 00:01:24;;;;;;;14.85;13.35;;;;;;;;;;2069686;28;20027;-62
2022/08/18 00:02:43;;;;;;;16.35;13.60;;;;;;;;;;2070526;28;20034;-62
2022/08/18 00:04:02;;;;;;;20.42;12.30;;;;;;;;;;2068707;28;20042;-62
2022/08/18 00:05:21;;;;;;;26.60;13.38;;;;;;;;;;2068687;28;20058;-62
2022/08/18 00:06:40;;;;;;;14.35;13.05;;;;;;;;;;2069180;28;20031;-62
2022/08/18 00:07:59;;;;;;;14.13;12.82;;;;;;;;;;2068654;28;20535;-62
2022/08/18 00:09:18;;;;;;;17.42;13.05;;;;;;;;;;2068910;28;20382;-62
2022/08/18 00:10:39;;;;;;;14.73;13.20;;;;;;;;;;2070857;28;20455;-62
2022/08/18 00:11:59;;;;;;;13.95;12.68;;;;;;;;;;2067694;28;20042;-62
2022/08/18 00:13:18;;;;;;;15.27;12.88;;;;;;;;;;2070002;28;20038;-62
2022/08/18 00:14:37;;;;;;;15.77;14.20;;;;;;;;;;2070369;28;20029;-62
2022/08/18 00:15:56;;;;;;;15.35;13.55;;;;;;;;;;2069706;28;20058;-62
2022/08/18 00:17:16;;;;;;;14.50;11.80;;;;;;;;;;2069589;28;20030;-63
2022/08/18 00:18:35;;;;;;;15.02;13.55;;;;;;;;;;2071353;28;20042;-63
2022/08/18 00:19:54;;;;;;;19.73;14.02;;;;;;;;;;2070083;28;20057;-62
2022/08/18 00:21:13;;;;;;;15.18;13.63;;;;;;;;;;2070488;28;20030;-63
2022/08/18 00:22:32;;;;;;;15.43;13.88;;;;;;;;;;2069266;28;20113;-62
2022/08/18 00:23:54;;;;;;;18.73;13.85;;;;;;;;;;2066664;28;20117;-63
2022/08/18 00:25:14;;;;;;;15.55;13.80;;;;;;;;;;2066950;28;20109;-63
2022/08/18 00:26:33;;;;;;;15.20;13.45;;;;;;;;;;2070257;28;20029;-63
2022/08/18 00:27:52;;;;;;;15.55;13.73;;;;;;;;;;2069047;28;20402;-62
2022/08/18 00:29:11;;;;;;;15.88;14.35;;;;;;;;;;2068878;28;20038;-62
2022/08/18 00:30:30;;;;;;;15.32;13.73;;;;;;;;;;2070032;28;20030;-62
2022/08/18 00:31:49;;;;;;;16.17;14.65;;;;;;;;;;2068468;28;20386;-63
2022/08/18 00:33:08;;;;;;;17.90;12.63;;;;;;;;;;2068182;28;20273;-62
2022/08/18 00:34:27;;;;;;;14.57;13.35;;;;;;;;;;2068302;28;20398;-63
2022/08/18 00:35:45;;;;;;;13.98;12.15;;;;;;;;;;2070455;28;20668;-62
2022/08/18 00:37:05;;;;;;;15.77;13.88;;;;;;;;;;2068667;28;20030;-63
2022/08/18 00:38:24;;;;;;;15.52;13.98;;;;;;;;;;2070899;28;20034;-62
2022/08/18 00:39:43;;;;;;;16.38;14.88;;;;;;;;;;2069673;28;20485;-62
2022/08/18 00:41:02;;;;;;;15.05;13.52;;;;;;;;;;2071106;28;20026;-63
2022/08/18 00:42:23;;;;;;;15.35;13.93;;;;;;;;;;2068147;28;20130;-62
2022/08/18 00:43:43;;;;;;;15.20;13.65;;;;;;;;;;2069987;28;20038;-63
2022/08/18 00:45:03;;;;;;;16.83;14.02;;;;;;;;;;2071011;28;20042;-62
2022/08/18 00:46:25;;;;;;;16.10;14.40;;;;;;;;;;2069883;28;20483;-62
2022/08/18 00:47:44;;;;;;;14.65;13.27;;;;;;;;;;2068290;28;20042;-62
2022/08/18 00:49:04;;;;;;;19.50;16.90;;;;;;;;;;2069092;28;20038;-63
2022/08/18 00:50:28;;;;;;;14.48;13.27;;;;;;;;;;2070004;28;20427;-62
2022/08/18 00:51:49;;;;;;;18.13;16.42;;;;;;;;;;2071256;28;21206;-62
2022/08/18 00:53:11;;;;;;;17.80;16.08;;;;;;;;;;2072130;28;20038;-62
2022/08/18 00:54:32;;;;;;;18.20;15.95;;;;;;;;;;2072286;28;20498;-63
2022/08/18 00:55:51;;;;;;;19.42;17.45;;;;;;;;;;2071853;28;20058;-62
2022/08/18 00:57:12;;;;;;;18.83;16.88;;;;;;;;;;2067595;28;20022;-63
2022/08/18 00:58:34;;;;;;;18.75;16.95;;;;;;;;;;2067166;28;20030;-62
2022/08/18 00:59:56;;;;;;;20.25;18.33;;;;;;;;;;2069544;28;20029;-63
2022/08/18 01:01:18;;;;;;;20.83;18.70;;;;;;;;;;2071905;28;20034;-62
2022/08/18 01:02:40;;;;;;;20.00;18.10;;;;;;;;;;2069485;28;20046;-63
2022/08/18 01:04:13;;;;;;;20.88;18.95;;;;;;;;;;2071154;28;20104;-63
2022/08/18 01:05:34;;;;;;;19.67;17.48;;;;;;;;;;2071577;28;20395;-63
2022/08/18 01:06:55;;;;;;;19.45;17.73;;;;;;;;;;2070105;28;20037;-62
2022/08/18 01:08:15;;;;;;;18.58;16.77;;;;;;;;;;2069215;28;20042;-63
2022/08/18 01:09:34;;;;;;;20.77;18.67;;;;;;;;;;2071512;28;20030;-63
2022/08/18 01:10:53;;;;;;;21.00;18.85;;;;;;;;;;2069756;28;20042;-63
2022/08/18 01:12:12;;;;;;;21.17;19.20;;;;;;;;;;2070150;28;20038;-63
2022/08/18 01:13:32;;;;;;;21.70;19.63;;;;;;;;;;2070474;28;20105;-63
2022/08/18 01:14:52;;;;;;;22.45;20.08;;;;;;;;;;2071264;28;20030;-63
2022/08/18 01:22:49;;;;;;;21.83;19.58;;;;;;;;;;2068251;28;20560;-63
2022/08/18 01:24:11;;;;;;;20.63;18.73;;;;;;;;;;2070560;28;20588;-63
2022/08/18 01:27:09;;;;;;;20.05;18.30;;;;;;;;;;2072185;28;20030;-63
2022/08/18 01:28:30;;;;;;;19.20;17.40;;;;;;;;;;2070478;28;20038;-63
2022/08/18 01:29:49;;;;;;;18.55;16.85;;;;;;;;;;2071128;28;20034;-63
2022/08/18 01:31:08;;;;;;;20.10;18.00;;;;;;;;;;2071092;28;20466;-63
2022/08/18 01:32:27;;;;;;;20.02;18.02;;;;;;;;;;2071363;28;20433;-63
2022/08/18 01:33:46;;;;;;;19.58;17.67;;;;;;;;;;2071938;28;20096;-63
2022/08/18 01:35:07;;;;;;;22.38;17.58;;;;;;;;;;2071074;28;20026;-63
2022/08/18 01:36:27;;;;;;;19.50;17.48;;;;;;;;;;2070196;28;20493;-63
2022/08/18 01:37:46;;;;;;;18.85;17.08;;;;;;;;;;2069318;28;20459;-63
2022/08/18 01:39:06;;;;;;;19.48;17.73;;;;;;;;;;2071864;28;20049;-63
2022/08/18 01:40:25;;;;;;;21.27;19.02;;;;;;;;;;2070079;28;20022;-63
2022/08/18 01:41:44;;;;;;;18.35;16.65;;;;;;;;;;2069115;28;20034;-63
2022/08/18 01:43:04;;;;;;;21.02;18.70;;;;;;;;;;2069585;28;20025;-63
2022/08/18 01:44:23;;;;;;;19.55;17.65;;;;;;;;;;2071246;28;20030;-63
2022/08/18 01:45:42;;;;;;;19.27;17.60;;;;;;;;;;2070127;28;20030;-63
2022/08/18 01:47:01;;;;;;;19.15;17.55;;;;;;;;;;2071810;28;20026;-62
2022/08/18 01:48:20;;;;;;;19.08;17.48;;;;;;;;;;2069549;28;20034;-63
2022/08/18 01:49:42;;;;;;;18.80;17.30;;;;;;;;;;2071275;28;20026;-62
2022/08/18 01:51:03;;;;;;;19.88;17.88;;;;;;;;;;2070741;28;20033;-62
2022/08/18 01:52:22;;;;;;;22.52;19.27;;;;;;;;;;2070470;28;20105;-62
2022/08/18 01:53:41;;;;;;;19.23;17.30;;;;;;;;;;2069797;28;20030;-62
2022/08/18 01:55:00;;;;;;;19.05;17.20;;;;;;;;;;2069664;28;20030;-62
2022/08/18 01:56:19;;;;;;;19.15;17.30;;;;;;;;;;2070058;28;20031;-63
2022/08/18 01:57:43;;;;;;;18.80;17.20;;;;;;;;;;2071241;28;20021;-62
2022/08/18 01:59:03;;;;;;;19.88;17.90;;;;;;;;;;2069921;28;20026;-62
2022/08/18 02:00:23;;;;;;;20.52;18.63;;;;;;;;;;2069493;28;20486;-62
2022/08/18 02:01:44;;;;;;;21.45;19.23;;;;;;;;;;2070298;28;20037;-62
2022/08/18 02:03:06;;;;;;;19.70;17.80;;;;;;;;;;2072783;28;20101;-62
2022/08/18 02:04:27;;;;;;;21.23;19.15;;;;;;;;;;2072015;28;20026;-62
2022/08/18 02:05:47;;;;;;;20.02;18.33;;;;;;;;;;2069899;28;20021;-62
2022/08/18 02:07:07;;;;;;;19.63;17.35;;;;;;;;;;2070574;28;20018;-62
2022/08/18 02:08:26;;;;;;;20.75;18.77;;;;;;;;;;2068564;28;20418;-62
2022/08/18 02:09:46;;;;;;;20.50;18.50;;;;;;;;;;2069327;28;20082;-62
2022/08/18 02:11:05;;;;;;;21.77;19.75;;;;;;;;;;2070362;28;20081;-62
2022/08/18 02:12:24;;;;;;;20.45;18.30;;;;;;;;;;2069390;28;20522;-62
2022/08/18 02:13:43;;;;;;;21.40;19.25;;;;;;;;;;2070315;28;20450;-62
2022/08/18 02:15:03;;;;;;;20.25;18.55;;;;;;;;;;2071662;28;20486;-62
2022/08/18 02:16:23;;;;;;;20.55;18.55;;;;;;;;;;2071694;28;20097;-62
2022/08/18 02:17:42;;;;;;;20.35;18.33;;;;;;;;;;2067796;28;20030;-63
2022/08/18 02:19:02;;;;;;;20.98;17.73;;;;;;;;;;2067972;28;20033;-62
2022/08/18 02:20:21;;;;;;;19.60;17.77;;;;;;;;;;2070201;28;20034;-62
2022/08/18 02:21:40;;;;;;;18.50;16.80;;;;;;;;;;2070400;28;20030;-62
2022/08/18 02:23:00;;;;;;;19.60;17.77;;;;;;;;;;2068674;28;20078;-62
2022/08/18 02:24:19;;;;;;;20.55;18.55;;;;;;;;;;2067746;28;20062;-62
2022/08/18 02:25:40;;;;;;;18.70;16.98;;;;;;;;;;2069372;28;20120;-62
2022/08/18 02:26:59;;;;;;;18.80;16.92;;;;;;;;;;2070012;28;20153;-62
2022/08/18 02:28:18;;;;;;;18.85;16.90;;;;;;;;;;2070473;28;20466;-62
2022/08/18 02:29:37;;;;;;;18.38;16.65;;;;;;;;;;2069649;28;20025;-62
2022/08/18 02:30:56;;;;;;;17.13;15.77;;;;;;;;;;2069469;28;20025;-62
2022/08/18 02:32:15;;;;;;;19.80;17.15;;;;;;;;;;2068267;28;20026;-62
2022/08/18 02:33:34;;;;;;;19.90;18.00;;;;;;;;;;2069119;28;20035;-62
2022/08/18 02:34:53;;;;;;;20.42;18.15;;;;;;;;;;2070581;28;20066;-62
2022/08/18 02:36:13;;;;;;;20.45;18.40;;;;;;;;;;2068433;28;20034;-62
2022/08/18 02:37:32;;;;;;;20.85;18.70;;;;;;;;;;2071035;28;20050;-62
2022/08/18 02:38:51;;;;;;;20.20;18.30;;;;;;;;;;2071861;28;20030;-62
2022/08/18 02:40:11;;;;;;;19.30;17.40;;;;;;;;;;2072209;28;20029;-62
2022/08/18 02:41:31;;;;;;;20.20;18.10;;;;;;;;;;2071946;28;20494;-62
2022/08/18 02:42:51;;;;;;;19.48;17.67;;;;;;;;;;2071755;28;20033;-62
2022/08/18 02:44:10;;;;;;;22.38;20.10;;;;;;;;;;2070829;28;20026;-62
2022/08/18 02:45:29;;;;;;;23.48;21.15;;;;;;;;;;2071814;28;20502;-62
2022/08/18 02:46:52;;;;;;;22.30;20.10;;;;;;;;;;2072104;28;20042;-62
2022/08/18 02:48:12;;;;;;;;;;;;;;;;;;2071918;28;20034;-62
2022/08/18 02:49:31;;;;;;;21.52;19.48;;;;;;;;;;2070005;28;19910;-62
2022/08/18 02:50:50;;;;;;;20.60;18.45;;;;;;;;;;2071336;28;20046;-62
2022/08/18 02:52:09;;;;;;;21.70;19.70;;;;;;;;;;2071327;28;20507;-62
2022/08/18 02:53:28;;;;;;;23.35;20.77;;;;;;;;;;2070607;28;20026;-62
2022/08/18 02:54:47;;;;;;;22.08;19.95;;;;;;;;;;2069466;28;20022;-62
2022/08/18 02:56:23;;;;;;;21.85;19.95;;;;;;;;;;2068084;28;20038;-62
2022/08/18 02:57:46;;;;;;;21.55;18.65;;;;;;;;;;2068393;28;20030;-62
2022/08/18 02:59:06;;;;;;;21.52;19.27;;;;;;;;;;2070738;28;20503;-62
2022/08/18 03:00:25;;;;;;;22.08;19.88;;;;;;;;;;2069544;28;20042;-62
2022/08/18 03:01:47;;;;;;;21.65;19.77;;;;;;;;;;2070361;28;20034;-62
2022/08/18 03:03:06;;;;;;;21.25;19.25;;;;;;;;;;2072179;28;20022;-62
2022/08/18 03:04:27;;;;;;;20.77;18.60;;;;;;;;;;2070706;28;20026;-62
2022/08/18 03:05:46;;;;;;;23.05;20.73;;;;;;;;;;2071142;28;20026;-62
2022/08/18 03:07:07;;;;;;;21.25;19.23;;;;;;;;;;2071451;28;20550;-62
2022/08/18 03:08:26;;;;;;;22.90;20.02;;;;;;;;;;2070775;28;20026;-63
2022/08/18 03:09:45;;;;;;;22.55;20.55;;;;;;;;;;2069627;28;20030;-62
2022/08/18 03:11:04;;;;;;;21.23;19.27;;;;;;;;;;2069404;28;20030;-62
2022/08/18 03:12:24;;;;;;;21.73;18.70;;;;;;;;;;2073275;28;20041;-62
2022/08/18 03:13:45;;;;;;;22.17;19.98;;;;;;;;;;2070955;28;20025;-62
2022/08/18 03:15:04;;;;;;;21.38;19.40;;;;;;;;;;2070773;28;20030;-62
2022/08/18 03:16:23;;;;;;;21.30;18.90;;;;;;;;;;2072320;28;20399;-63
2022/08/18 03:17:42;;;;;;;23.45;21.20;;;;;;;;;;2071900;28;20026;-63
2022/08/18 03:19:02;;;;;;;24.02;21.83;;;;;;;;;;2070480;28;20112;-62
2022/08/18 03:20:21;;;;;;;22.92;20.52;;;;;;;;;;2071436;28;20482;-63
2022/08/18 03:21:41;;;;;;;21.02;19.08;;;;;;;;;;2070352;28;20030;-62
2022/08/18 03:23:02;;;;;;;22.27;20.25;;;;;;;;;;2071477;28;20502;-62
2022/08/18 03:24:21;;;;;;;23.60;21.15;;;;;;;;;;2069557;28;20026;-62
2022/08/18 03:25:47;;;;;;;25.38;22.80;;;;;;;;;;2069516;28;20029;-62
2022/08/18 03:27:06;;;;;;;25.63;23.33;;;;;;;;;;2071096;28;20108;-62
2022/08/18 03:28:25;;;;;;;25.17;22.83;;;;;;;;;;2071657;28;20105;-62
2022/08/18 03:29:44;;;;;;;26.60;24.05;;;;;;;;;;2070149;28;20018;-62
2022/08/18 03:31:03;;;;;;;25.73;23.15;;;;;;;;;;2068658;28;20101;-62
2022/08/18 03:32:22;;;;;;;25.55;23.02;;;;;;;;;;2072097;28;20038;-62
2022/08/18 03:33:42;;;;;;;25.42;22.90;;;;;;;;;;2071631;28;20026;-62
2022/08/18 03:35:01;;;;;;;24.13;21.77;;;;;;;;;;2070175;28;20018;-62
2022/08/18 03:36:21;;;;;;;25.35;22.23;;;;;;;;;;2072271;28;20026;-62
2022/08/18 03:37:40;;;;;;;24.58;22.27;;;;;;;;;;2070420;28;20031;-62
2022/08/18 03:39:04;;;;;;;24.48;22.05;;;;;;;;;;2070232;28;20037;-63
2022/08/18 03:40:23;;;;;;;22.20;20.10;;;;;;;;;;2070935;28;20509;-63
2022/08/18 03:41:43;;;;;;;20.25;18.35;;;;;;;;;;2070228;28;20029;-63
2022/08/18 03:43:05;;;;;;;24.27;22.08;;;;;;;;;;2073030;28;20045;-62
2022/08/18 03:44:24;;;;;;;21.58;19.50;;;;;;;;;;2071821;28;20030;-62
2022/08/18 03:45:43;;;;;;;21.63;19.50;;;;;;;;;;2069058;28;20062;-62
2022/08/18 03:47:06;;;;;;;23.45;21.33;;;;;;;;;;2072097;28;20038;-62
2022/08/18 03:48:25;;;;;;;22.38;19.67;;;;;;;;;;2071130;28;20522;-62
2022/08/18 03:49:44;;;;;;;23.38;19.58;;;;;;;;;;2069880;28;20041;-62
2022/08/18 03:51:08;;;;;;;23.48;19.45;;;;;;;;;;2072759;28;20046;-63
2022/08/18 03:52:27;;;;;;;22.52;19.45;;;;;;;;;;2072523;28;20097;-62
2022/08/18 03:53:48;;;;;;;31.88;28.67;;;;;;;;;;2068430;28;20034;-63
2022/08/18 03:55:07;;;;;;;42.35;37.80;;;;;;;;;;2069740;28;20074;-62
2022/08/18 03:56:27;;;;;;;47.53;42.25;;;;;;;;;;2072573;28;20037;-62
2022/08/18 03:57:46;;;;;;;27.55;24.65;;;;;;;;;;2070354;28;20030;-62
2022/08/18 03:59:16;;;;;;;24.58;22.17;;;;;;;;;;2070624;28;20595;-62
2022/08/18 04:00:37;;;;;;;25.95;23.27;;;;;;;;;;2069146;28;20042;-62
2022/08/18 04:01:56;;;;;;;24.67;22.38;;;;;;;;;;2071770;28;20026;-62
2022/08/18 04:03:15;;;;;;;22.65;20.45;;;;;;;;;;2070467;28;20057;-62
2022/08/18 04:04:33;;;;;;;21.77;19.70;;;;;;;;;;2070954;28;20053;-62
2022/08/18 04:05:52;;;;;;;22.55;20.25;;;;;;;;;;2068763;28;20109;-62
2022/08/18 04:07:15;;;;;;;23.33;21.13;;;;;;;;;;2072596;28;20347;-63
2022/08/18 04:08:34;;;;;;;23.77;21.40;;;;;;;;;;2070865;28;20031;-64
2022/08/18 04:09:53;;;;;;;23.10;20.88;;;;;;;;;;2069314;28;20038;-64
2022/08/18 04:11:13;;;;;;;22.40;20.15;;;;;;;;;;2071039;28;20112;-64
2022/08/18 04:12:32;;;;;;;22.08;20.00;;;;;;;;;;2071932;28;20022;-64
2022/08/18 04:13:51;;;;;;;22.08;19.95;;;;;;;;;;2069529;28;20399;-64
2022/08/18 04:15:10;;;;;;;21.60;19.70;;;;;;;;;;2068237;28;20030;-64
2022/08/18 04:16:31;;;;;;;21.42;19.50;;;;;;;;;;2071132;28;20042;-64
2022/08/18 04:17:49;;;;;;;21.15;19.13;;;;;;;;;;2071456;28;20026;-64
2022/08/18 04:19:12;;;;;;;22.33;20.23;;;;;;;;;;2069996;28;20033;-64
2022/08/18 04:20:32;;;;;;;22.95;20.25;;;;;;;;;;2068784;28;20027;-64
2022/08/18 04:21:51;;;;;;;21.40;19.30;;;;;;;;;;2071892;28;20426;-64
2022/08/18 04:23:10;;;;;;;22.50;20.35;;;;;;;;;;2071085;28;20018;-64
2022/08/18 04:24:30;;;;;;;23.70;20.05;;;;;;;;;;2070266;28;20026;-64
2022/08/18 04:25:56;;;;;;;22.38;19.73;;;;;;;;;;2067844;28;20026;-64
2022/08/18 04:27:16;;;;;;;23.05;19.65;;;;;;;;;;2068568;28;20440;-64
2022/08/18 04:28:35;;;;;;;21.27;19.02;;;;;;;;;;2070707;28;20034;-64
2022/08/18 04:29:55;;;;;;;22.38;20.00;;;;;;;;;;2068700;28;20022;-63
2022/08/18 04:31:14;;;;;;;21.90;19.80;;;;;;;;;;2070091;28;20033;-63
2022/08/18 04:32:33;;;;;;;22.73;20.63;;;;;;;;;;2072804;28;20478;-63
2022/08/18 04:33:53;;;;;;;22.40;19.75;;;;;;;;;;2069174;28;20163;-64
2022/08/18 04:35:12;;;;;;;23.48;20.65;;;;;;;;;;2068997;28;20034;-64
2022/08/18 04:36:33;;;;;;;21.08;19.00;;;;;;;;;;2068801;28;20038;-64
2022/08/18 04:37:51;;;;;;;20.90;18.77;;;;;;;;;;2068124;28;20038;-64
2022/08/18 04:39:11;;;;;;;20.20;18.40;;;;;;;;;;2070106;28;20030;-64
2022/08/18 04:40:32;;;;;;;26.23;23.73;;;;;;;;;;2071181;28;20102;-64
2022/08/18 04:41:51;;;;;;;22.52;20.42;;;;;;;;;;2069589;28;20507;-63
2022/08/18 04:43:14;;;;;;;20.60;18.90;;;;;;;;;;2071845;28;20029;-63
2022/08/18 04:44:33;;;;;;;25.40;19.58;;;;;;;;;;2071953;28;20038;-63
2022/08/18 04:45:52;;;;;;;20.45;18.48;;;;;;;;;;2068965;28;20030;-63
2022/08/18 04:47:11;;;;;;;21.98;19.30;;;;;;;;;;2071303;28;20109;-63
2022/08/18 04:48:34;;;;;;;19.05;17.25;;;;;;;;;;2071205;28;20038;-63
2022/08/18 04:49:53;;;;;;;19.00;17.10;;;;;;;;;;2070110;28;22929;-63
2022/08/18 04:51:13;;;;;;;20.23;18.30;;;;;;;;;;2070247;28;20069;-63
2022/08/18 04:54:11;;;;;;;19.20;17.35;;;;;;;;;;2070156;28;20108;-63
2022/08/18 04:55:30;;;;;;;21.77;18.95;;;;;;;;;;2071631;28;20112;-67
2022/08/18 04:56:49;;;;;;;18.92;17.02;;;;;;;;;;2070342;28;20045;-70
2022/08/18 04:58:07;;;;;;;18.63;16.75;;;;;;;;;;2071730;28;20030;-69
2022/08/18 04:59:26;;;;;;;19.90;17.80;;;;;;;;;;2068512;28;20038;-71
2022/08/18 05:00:46;;;;;;;19.15;17.50;;;;;;;;;;2067682;28;20449;-71
2022/08/18 05:02:06;;;;;;;17.85;16.10;;;;;;;;;;2068898;28;20029;-72
2022/08/18 05:03:26;;;;;;;18.05;16.45;;;;;;;;;;2070358;28;20061;-66
2022/08/18 05:04:48;;;;;;;17.52;15.65;;;;;;;;;;2070021;28;20034;-71
2022/08/18 05:06:08;;;;;;;17.30;15.80;;;;;;;;;;2071848;28;20038;-71
2022/08/18 05:07:27;;;;;;;17.65;16.10;;;;;;;;;;2069601;28;20267;-71
2022/08/18 05:08:47;;;;;;;17.05;15.40;;;;;;;;;;2065677;28;20057;-71
2022/08/18 05:10:06;;;;;;;16.15;14.75;;;;;;;;;;2065863;28;20038;-71
2022/08/18 05:11:27;;;;;;;16.75;15.20;;;;;;;;;;2069768;28;20133;-69
2022/08/18 05:12:47;;;;;;;17.33;15.48;;;;;;;;;;2068040;28;20061;-71
2022/08/18 05:14:07;;;;;;;16.92;15.20;;;;;;;;;;2071560;28;20050;-73
2022/08/18 05:15:26;;;;;;;16.70;15.30;;;;;;;;;;2069987;28;20026;-71
2022/08/18 05:16:45;;;;;;;15.15;13.85;;;;;;;;;;2069841;28;20399;-70
2022/08/18 05:18:04;;;;;;;17.45;15.85;;;;;;;;;;2070818;28;20486;-71
2022/08/18 05:19:25;;;;;;;15.18;13.98;;;;;;;;;;2067696;28;20457;-70
2022/08/18 05:20:44;;;;;;;15.57;14.05;;;;;;;;;;2066004;28;20113;-71
2022/08/18 05:22:06;;;;;;;16.42;14.15;;;;;;;;;;2069013;28;20022;-69
2022/08/18 05:23:25;;;;;;;15.73;14.07;;;;;;;;;;2070568;28;20038;-70
2022/08/18 05:24:44;;;;;;;15.07;13.88;;;;;;;;;;2069649;28;20038;-63
2022/08/18 05:26:03;;;;;;;14.98;13.55;;;;;;;;;;2071027;28;20054;-64
2022/08/18 05:27:22;;;;;;;14.30;13.10;;;;;;;;;;2069445;28;20030;-65
2022/08/18 05:28:41;;;;;;;13.93;12.68;;;;;;;;;;2069352;28;20478;-60
2022/08/18 05:30:01;;;;;;;14.25;13.00;;;;;;;;;;2070527;28;20038;-59
2022/08/18 05:31:21;;;;;;;13.82;12.80;;;;;;;;;;2070106;28;20026;-59
2022/08/18 05:32:41;;;;;;;13.40;12.40;;;;;;;;;;2070425;28;20034;-59
2022/08/18 05:34:02;;;;;;;13.52;12.32;;;;;;;;;;2069351;28;20078;-60
2022/08/18 05:35:27;;;;;;;13.90;12.70;;;;;;;;;;2070842;28;20380;-59
2022/08/18 05:36:50;;;;;;;14.65;13.13;;;;;;;;;;2069456;28;20478;-60
2022/08/18 05:38:10;;;;;;;;;;;;;;;;;;2069461;28;20042;-59
2022/08/18 05:39:34;;;;;;;13.55;12.38;;;;;;;;;;2068447;28;20350;-59
2022/08/18 05:41:13;;;;;;;13.00;11.77;;;;;;;;;;2068817;28;20421;-59
2022/08/18 05:42:36;;;;;;;13.30;12.35;;;;;;;;;;2067914;28;20486;-59
2022/08/18 05:43:56;;;;;;;12.95;11.82;;;;;;;;;;2069196;28;20391;-60
2022/08/18 05:45:15;;;;;;;13.23;12.00;;;;;;;;;;2069316;28;20022;-59
2022/08/18 05:46:47;;;;;;;14.10;12.88;;;;;;;;;;2070325;28;20029;-59
2022/08/18 05:48:06;;;;;;;13.70;12.43;;;;;;;;;;2071160;28;20073;-59
2022/08/18 05:49:25;;;;;;;13.13;12.10;;;;;;;;;;2070621;28;20022;-59
2022/08/18 05:50:44;;;;;;;13.07;11.77;;;;;;;;;;2071290;28;20053;-59
2022/08/18 05:52:05;;;;;;;13.23;12.07;;;;;;;;;;2069990;28;20050;-59
2022/08/18 05:56:45;;;;;;;28.08;25.08;;;;;;;;;;2070170;28;20030;-59
2022/08/18 05:56:47;;;;;;;14.48;13.07;;;;;;;;;;2070593;28;20510;-60
2022/08/18 05:58:15;;;;;;;12.50;11.57;;;;;;;;;;2070518;28;20053;-59
2022/08/18 05:59:36;;;;;;;13.20;12.05;;;;;;;;;;2071122;28;20026;-59
2022/08/18 06:00:57;;;;;;;13.27;12.05;;;;;;;;;;2068214;28;20029;-59
2022/08/18 06:02:20;;;;;;;12.25;11.18;;;;;;;;;;2067046;28;20033;-59
2022/08/18 06:03:48;;;;;;;12.32;11.23;;;;;;;;;;2071065;28;20034;-59
2022/08/18 06:05:11;;;;;;;11.65;10.80;;;;;;;;;;2070758;28;20034;-59
2022/08/18 06:06:31;;;;;;;13.13;11.93;;;;;;;;;;2070160;28;20022;-59
2022/08/18 06:07:52;;;;;;;12.35;11.35;;;;;;;;;;2069923;28;20030;-60
2022/08/18 06:09:21;;;;;;;11.68;10.88;;;;;;;;;;2070289;28;20057;-59
2022/08/18 06:10:42;;;;;;;11.98;11.10;;;;;;;;;;2070032;28;20382;-60
2022/08/18 06:12:08;;;;;;;12.85;11.07;;;;;;;;;;2068863;28;20436;-59
2022/08/18 06:13:27;;;;;;;11.55;10.57;;;;;;;;;;2070008;28;20034;-60
2022/08/18 06:14:46;;;;;;;12.10;11.05;;;;;;;;;;2070335;28;20026;-60
2022/08/18 06:16:31;;;;;;;11.05;9.93;;;;;;;;;;2069231;28;20030;-60
2022/08/18 06:17:50;;;;;;;12.93;11.73;;;;;;;;;;2070456;28;20034;-59
2022/08/18 06:19:32;;;;;;;11.95;10.95;;;;;;;;;;2069921;28;20042;-59
2022/08/18 06:21:10;;;;;;;12.98;11.45;;;;;;;;;;2069808;28;20034;-59
2022/08/18 06:22:42;;;;;;;11.95;10.82;;;;;;;;;;2069026;28;20029;-60
2022/08/18 06:24:09;;;;;;;12.88;11.05;;;;;;;;;;2069214;28;20046;-59
2022/08/18 06:25:44;;;;;;;11.10;10.20;;;;;;;;;;2070927;28;20196;-60
2022/08/18 06:27:21;;;;;;;11.57;10.52;;;;;;;;;;2071832;28;20116;-59
2022/08/18 06:28:59;;;;;;;11.15;10.05;;;;;;;;;;2068044;28;20689;-59
2022/08/18 06:30:21;;;;;;;11.65;10.65;;;;;;;;;;2068967;28;20050;-60
2022/08/18 06:31:40;;;;;;;10.98;9.98;;;;;;;;;;2070905;28;20030;-60
2022/08/18 06:33:05;;;;;;;11.13;10.32;;;;;;;;;;2069667;28;20193;-64
2022/08/18 06:34:27;;;;;;;10.50;9.60;;;;;;;;;;2070291;28;20034;-63
2022/08/18 06:35:48;;;;;;;11.17;10.27;;;;;;;;;;2071736;28;20022;-62
2022/08/18 06:37:27;;;;;;;10.65;9.50;;;;;;;;;;2070094;28;20308;-63
2022/08/18 06:39:04;;;;;;;10.85;9.85;;;;;;;;;;2070437;28;20449;-62
2022/08/18 06:40:23;;;;;;;11.43;10.32;;;;;;;;;;2071077;28;20433;-62
2022/08/18 06:41:45;;;;;;;18.63;10.52;;;;;;;;;;2070918;28;20487;-62
2022/08/18 06:43:08;;;;;;;11.18;10.20;;;;;;;;;;2069338;28;20033;-62
2022/08/18 06:45:00;;;;;;;10.68;9.68;;;;;;;;;;2070671;28;20113;-62
2022/08/18 06:46:22;;;;;;;10.23;9.32;;;;;;;;;;2045688;28;20027;-62
2022/08/18 06:47:51;;;;;;;10.98;10.02;;;;;;;;;;2069709;28;20500;-62
2022/08/18 06:49:13;;;;;;;10.70;9.73;;;;;;;;;;2070223;28;20406;-62
2022/08/18 06:50:34;;;;;;;17.75;9.65;;;;;;;;;;2069090;28;20058;-62
2022/08/18 06:51:53;;;;;;;10.65;9.45;;;;;;;;;;2071982;28;20044;-63
2022/08/18 06:53:13;;;;;;;10.35;9.35;;;;;;;;;;2070116;28;20030;-62
2022/08/18 06:54:41;;;;;;;10.85;9.13;;;;;;;;;;2071434;28;20022;-61
2022/08/18 06:56:18;;;;;;;9.10;8.27;;;;;;;;;;2071294;28;20057;-63
2022/08/18 06:57:38;;;;;;;10.70;9.18;;;;;;;;;;2070724;28;20026;-63
2022/08/18 06:59:13;;;;;;;10.60;8.65;;;;;;;;;;2070419;28;20050;-63
2022/08/18 07:00:33;;;;;;;9.20;8.23;;;;;;;;;;2069654;28;20022;-63
2022/08/18 07:01:53;;;;;;;8.98;8.23;;;;;;;;;;2070508;28;20037;-62
2022/08/18 07:03:14;;;;;;;9.27;8.38;;;;;;;;;;2069968;28;20034;-62
2022/08/18 07:04:37;;;;;;;8.73;8.10;;;;;;;;;;2070766;28;20101;-63
2022/08/18 07:06:02;;;;;;;15.25;8.43;;;;;;;;;;2070658;28;20381;-62
2022/08/18 07:07:30;;;;;;;9.07;8.32;;;;;;;;;;2070236;28;20049;-63
2022/08/18 07:08:50;;;;;;;8.73;7.88;;;;;;;;;;2069268;28;20073;-63
2022/08/18 07:10:12;;;;;;;12.15;8.30;;;;;;;;;;2071052;28;20026;-62
2022/08/18 07:11:32;;;;;;;10.50;7.88;;;;;;;;;;2069946;28;20470;-63
2022/08/18 07:12:51;;;;;;;8.27;7.53;;;;;;;;;;2070340;28;20027;-62
2022/08/18 07:14:19;;;;;;;9.35;8.23;;;;;;;;;;2069948;28;20026;-64
2022/08/18 07:15:38;;;;;;;9.05;7.90;;;;;;;;;;2069536;28;20034;-63
2022/08/18 07:17:11;;;;;;;9.23;8.52;;;;;;;;;;2071195;28;20037;-63
2022/08/18 07:18:30;;;;;;;9.18;8.35;;;;;;;;;;2070475;28;20573;-63
2022/08/18 07:19:56;;;;;;;8.48;7.82;;;;;;;;;;2071671;28;20049;-63
2022/08/18 07:21:23;;;;;;;8.57;7.93;;;;;;;;;;2069563;28;20122;-64
2022/08/18 07:22:54;;;;;;;9.75;8.02;;;;;;;;;;2070259;28;20034;-63
2022/08/18 07:24:31;;;;;;;9.43;7.70;;;;;;;;;;2070578;28;20060;-63
2022/08/18 07:25:58;;;;;;;8.10;7.47;;;;;;;;;;2071389;28;20042;-64
2022/08/18 07:27:19;;;;;;;8.18;7.53;;;;;;;;;;2068762;28;20033;-64
2022/08/18 07:28:43;;;;;;;8.10;7.47;;;;;;;;;;2070300;28;20022;-64
2022/08/18 07:30:05;;;;;;;7.82;7.32;;;;;;;;;;2069890;28;20460;-64
2022/08/18 07:31:47;;;;;;;8.65;7.90;;;;;;;;;;2072104;28;20432;-64
2022/08/18 07:33:17;;;;;;;9.13;7.75;;;;;;;;;;2070446;28;20022;-64
2022/08/18 07:34:47;;;;;;;8.85;8.00;;;;;;;;;;2069200;28;20046;-64
2022/08/18 07:36:08;;;;;;;8.82;8.02;;;;;;;;;;2070312;28;20022;-64
2022/08/18 07:37:37;;;;;;;11.27;7.25;;;;;;;;;;2070176;28;20026;-64
2022/08/18 07:39:02;;;;;;;8.23;7.63;;;;;;;;;;2070272;28;20367;-58
2022/08/18 07:40:26;;;;;;;7.43;6.88;;;;;;;;;;2070334;28;20038;-58
2022/08/18 07:41:51;;;;;;;8.05;7.30;;;;;;;;;;2070609;28;20483;-59
2022/08/18 07:43:18;;;;;;;7.32;6.60;;;;;;;;;;2072241;28;20033;-59
2022/08/18 07:44:38;;;;;;;7.40;6.70;;;;;;;;;;2070426;28;20034;-57
2022/08/18 07:46:01;;;;;;;6.97;6.57;;;;;;;;;;2071136;28;20042;-58
2022/08/18 07:47:24;;;;;;;7.68;7.03;;;;;;;;;;2072351;28;20033;-59
2022/08/18 07:48:43;;;;;;;8.43;7.32;;;;;;;;;;2072454;28;20026;-58
2022/08/18 07:50:03;;;;;;;6.95;6.25;;;;;;;;;;2072472;28;20042;-58
2022/08/18 07:51:42;;;;;;;6.90;6.32;;;;;;;;;;2069850;28;20027;-58
2022/08/18 07:53:13;;;;;;;6.25;5.85;;;;;;;;;;2070289;28;20030;-59
2022/08/18 07:55:01;;;;;;;6.30;5.80;;;;;;;;;;2071531;28;20030;-58
2022/08/18 07:56:41;;;;;;;6.68;6.10;;;;;;;;;;2064381;28;20108;-58
2022/08/18 07:58:00;;;;;;;6.85;6.25;;;;;;;;;;2070691;28;20502;-58
2022/08/18 07:59:29;;;;;;;10.15;6.93;;;;;;;;;;2071631;28;20122;-59
2022/08/18 08:01:14;;;;;;;9.55;6.53;;;;;;;;;;2071876;28;20104;-58
2022/08/18 08:03:11;;;;;;;8.75;6.60;;;;;;;;;;2069954;28;20478;-59
2022/08/18 08:04:48;;;;;;;11.68;7.10;;;;;;;;;;2045716;28;20035;-58
2022/08/18 08:06:13;;;;;;;7.10;6.47;;;;;;;;;;2047442;28;20027;-58
2022/08/18 08:07:41;;;;;;;9.90;6.53;;;;;;;;;;2047602;28;20023;-58
2022/08/18 08:09:00;;;;;;;12.18;7.28;;;;;;;;;;2047412;28;20055;-58
2022/08/18 08:10:28;;;;;;;7.90;6.03;;;;;;;;;;2070386;28;20502;-58